sensor_id;sensor_type;location;lat;lon;timestamp;P1;durP1;ratioP1;P2;durP2;ratioP2
46365;SDS011;32073;49.166;8.076;2023-03-21T00:01:30;7.35;;;3.20;;
46365;SDS011;32073;49.166;8.076;2023-03-21T00:05:31;8.55;;;3.85;;
46365;SDS011;32073;49.166;8.076;2023-03-21T00:09:32;4.70;;;2.35;;
46365;SDS011;32073;49.166;8.076;2023-03-21T00:13:32;5.93;;;3.08;;
46365;SDS011;32073;49.166;8.076;2023-03-21T00:17:37;2.55;;;1.50;;
46365;SDS011;32073;49.166;8.076;2023-03-21T00:21:38;5.10;;;1.55;;
46365;SDS011;32073;49.166;8.076;2023-03-21T00:25:41;3.55;;;1.27;;
46365;SDS011;32073;49.166;8.076;2023-03-21T00:29:41;3.25;;;1.45;;
46365;SDS011;32073;49.166;8.076;2023-03-21T00:33:42;3.00;;;1.10;;
46365;SDS011;32073;49.166;8.076;2023-03-21T00:37:43;2.03;;;0.90;;
46365;SDS011;32073;49.166;8.076;2023-03-21T00:41:44;1.70;;;0.90;;
46365;SDS011;32073;49.166;8.076;2023-03-21T00:45:45;2.17;;;0.90;;
46365;SDS011;32073;49.166;8.076;2023-03-21T00:49:46;1.48;;;0.80;;
46365;SDS011;32073;49.166;8.076;2023-03-21T00:53:46;1.40;;;0.77;;
46365;SDS011;32073;49.166;8.076;2023-03-21T00:57:47;1.60;;;0.93;;
46365;SDS011;32073;49.166;8.076;2023-03-21T01:01:48;1.70;;;1.02;;
46365;SDS011;32073;49.166;8.076;2023-03-21T01:05:49;3.85;;;1.10;;
46365;SDS011;32073;49.166;8.076;2023-03-21T01:10:05;2.95;;;1.20;;
46365;SDS011;32073;49.166;8.076;2023-03-21T01:14:07;2.42;;;0.90;;
46365;SDS011;32073;49.166;8.076;2023-03-21T01:18:09;2.22;;;1.00;;
46365;SDS011;32073;49.166;8.076;2023-03-21T01:22:10;2.60;;;0.90;;
46365;SDS011;32073;49.166;8.076;2023-03-21T01:26:11;2.72;;;1.17;;
46365;SDS011;32073;49.166;8.076;2023-03-21T01:30:13;3.03;;;1.08;;
46365;SDS011;32073;49.166;8.076;2023-03-21T01:34:14;2.38;;;1.00;;
46365;SDS011;32073;49.166;8.076;2023-03-21T01:38:15;1.52;;;0.85;;
46365;SDS011;32073;49.166;8.076;2023-03-21T01:42:16;1.75;;;1.17;;
46365;SDS011;32073;49.166;8.076;2023-03-21T01:46:21;2.20;;;1.00;;
46365;SDS011;32073;49.166;8.076;2023-03-21T01:50:36;1.48;;;1.05;;
46365;SDS011;32073;49.166;8.076;2023-03-21T01:54:39;1.92;;;1.23;;
46365;SDS011;32073;49.166;8.076;2023-03-21T01:58:41;2.25;;;1.23;;
46365;SDS011;32073;49.166;8.076;2023-03-21T02:02:44;3.38;;;1.25;;
46365;SDS011;32073;49.166;8.076;2023-03-21T02:06:56;2.15;;;1.15;;
46365;SDS011;32073;49.166;8.076;2023-03-21T02:11:02;2.87;;;1.03;;
46365;SDS011;32073;49.166;8.076;2023-03-21T02:15:03;3.85;;;1.30;;
46365;SDS011;32073;49.166;8.076;2023-03-21T02:19:11;2.55;;;1.27;;
46365;SDS011;32073;49.166;8.076;2023-03-21T02:23:41;2.67;;;1.35;;
46365;SDS011;32073;49.166;8.076;2023-03-21T02:28:17;2.20;;;1.10;;
46365;SDS011;32073;49.166;8.076;2023-03-21T02:37:04;3.30;;;1.20;;
46365;SDS011;32073;49.166;8.076;2023-03-21T02:41:47;2.83;;;1.15;;
46365;SDS011;32073;49.166;8.076;2023-03-21T02:50:08;4.70;;;1.10;;
46365;SDS011;32073;49.166;8.076;2023-03-21T02:54:20;5.27;;;1.13;;
46365;SDS011;32073;49.166;8.076;2023-03-21T02:58:23;2.30;;;1.05;;
46365;SDS011;32073;49.166;8.076;2023-03-21T03:02:28;2.33;;;1.15;;
46365;SDS011;32073;49.166;8.076;2023-03-21T03:06:38;1.73;;;0.95;;
46365;SDS011;32073;49.166;8.076;2023-03-21T03:15:44;2.97;;;1.10;;
46365;SDS011;32073;49.166;8.076;2023-03-21T03:28:37;3.72;;;1.10;;
46365;SDS011;32073;49.166;8.076;2023-03-21T03:32:49;2.88;;;1.05;;
46365;SDS011;32073;49.166;8.076;2023-03-21T03:36:56;3.65;;;1.17;;
46365;SDS011;32073;49.166;8.076;2023-03-21T03:41:06;1.95;;;1.00;;
46365;SDS011;32073;49.166;8.076;2023-03-21T03:45:16;4.97;;;1.00;;
46365;SDS011;32073;49.166;8.076;2023-03-21T03:49:20;1.60;;;0.90;;
46365;SDS011;32073;49.166;8.076;2023-03-21T03:53:26;2.38;;;0.93;;
46365;SDS011;32073;49.166;8.076;2023-03-21T03:57:37;3.47;;;1.30;;
46365;SDS011;32073;49.166;8.076;2023-03-21T04:01:39;2.40;;;1.00;;
46365;SDS011;32073;49.166;8.076;2023-03-21T04:05:40;3.40;;;1.10;;
46365;SDS011;32073;49.166;8.076;2023-03-21T04:09:41;1.63;;;1.00;;
46365;SDS011;32073;49.166;8.076;2023-03-21T04:13:41;2.53;;;1.10;;
46365;SDS011;32073;49.166;8.076;2023-03-21T04:17:42;1.85;;;1.00;;
46365;SDS011;32073;49.166;8.076;2023-03-21T04:21:44;1.55;;;0.85;;
46365;SDS011;32073;49.166;8.076;2023-03-21T04:25:45;5.70;;;2.13;;
46365;SDS011;32073;49.166;8.076;2023-03-21T04:29:46;1.50;;;0.90;;
46365;SDS011;32073;49.166;8.076;2023-03-21T04:33:47;1.40;;;0.85;;
46365;SDS011;32073;49.166;8.076;2023-03-21T04:37:49;2.17;;;1.15;;
46365;SDS011;32073;49.166;8.076;2023-03-21T04:41:49;2.70;;;0.90;;
46365;SDS011;32073;49.166;8.076;2023-03-21T04:45:50;4.15;;;1.02;;
46365;SDS011;32073;49.166;8.076;2023-03-21T04:49:51;2.40;;;1.60;;
46365;SDS011;32073;49.166;8.076;2023-03-21T04:53:52;3.65;;;1.60;;
46365;SDS011;32073;49.166;8.076;2023-03-21T04:57:56;5.90;;;1.17;;
46365;SDS011;32073;49.166;8.076;2023-03-21T05:01:57;8.30;;;3.30;;
46365;SDS011;32073;49.166;8.076;2023-03-21T05:05:58;34.15;;;13.88;;
46365;SDS011;32073;49.166;8.076;2023-03-21T05:10:00;34.05;;;12.85;;
46365;SDS011;32073;49.166;8.076;2023-03-21T05:14:00;26.10;;;10.98;;
46365;SDS011;32073;49.166;8.076;2023-03-21T05:18:01;26.63;;;10.23;;
46365;SDS011;32073;49.166;8.076;2023-03-21T05:22:10;25.42;;;9.95;;
46365;SDS011;32073;49.166;8.076;2023-03-21T05:26:11;24.88;;;9.98;;
46365;SDS011;32073;49.166;8.076;2023-03-21T05:30:13;23.55;;;8.73;;
46365;SDS011;32073;49.166;8.076;2023-03-21T05:34:16;17.63;;;7.18;;
46365;SDS011;32073;49.166;8.076;2023-03-21T05:38:16;13.32;;;6.40;;
46365;SDS011;32073;49.166;8.076;2023-03-21T05:42:17;15.27;;;6.68;;
46365;SDS011;32073;49.166;8.076;2023-03-21T05:46:18;11.60;;;5.25;;
46365;SDS011;32073;49.166;8.076;2023-03-21T05:50:19;11.43;;;4.50;;
46365;SDS011;32073;49.166;8.076;2023-03-21T05:54:20;6.32;;;3.00;;
46365;SDS011;32073;49.166;8.076;2023-03-21T05:58:21;6.47;;;2.38;;
46365;SDS011;32073;49.166;8.076;2023-03-21T06:02:22;6.00;;;1.70;;
46365;SDS011;32073;49.166;8.076;2023-03-21T06:06:23;3.30;;;1.70;;
46365;SDS011;32073;49.166;8.076;2023-03-21T06:10:23;3.47;;;2.30;;
46365;SDS011;32073;49.166;8.076;2023-03-21T06:14:24;5.45;;;2.17;;
46365;SDS011;32073;49.166;8.076;2023-03-21T06:18:25;4.68;;;2.08;;
46365;SDS011;32073;49.166;8.076;2023-03-21T06:22:26;3.22;;;1.63;;
46365;SDS011;32073;49.166;8.076;2023-03-21T06:26:27;5.63;;;1.70;;
46365;SDS011;32073;49.166;8.076;2023-03-21T06:30:28;3.15;;;1.30;;
46365;SDS011;32073;49.166;8.076;2023-03-21T06:34:29;3.05;;;1.33;;
46365;SDS011;32073;49.166;8.076;2023-03-21T06:38:30;5.28;;;1.50;;
46365;SDS011;32073;49.166;8.076;2023-03-21T06:42:31;2.55;;;1.20;;
46365;SDS011;32073;49.166;8.076;2023-03-21T06:46:31;4.68;;;1.70;;
46365;SDS011;32073;49.166;8.076;2023-03-21T06:50:32;3.28;;;1.67;;
46365;SDS011;32073;49.166;8.076;2023-03-21T06:54:33;4.60;;;1.10;;
46365;SDS011;32073;49.166;8.076;2023-03-21T06:58:33;2.40;;;0.95;;
46365;SDS011;32073;49.166;8.076;2023-03-21T07:02:35;1.63;;;0.82;;
46365;SDS011;32073;49.166;8.076;2023-03-21T07:06:36;1.77;;;1.00;;
46365;SDS011;32073;49.166;8.076;2023-03-21T07:10:38;1.85;;;1.13;;
46365;SDS011;32073;49.166;8.076;2023-03-21T07:14:42;4.00;;;0.90;;
46365;SDS011;32073;49.166;8.076;2023-03-21T07:18:43;3.10;;;1.23;;
46365;SDS011;32073;49.166;8.076;2023-03-21T07:22:44;5.53;;;1.67;;
46365;SDS011;32073;49.166;8.076;2023-03-21T07:26:44;3.40;;;0.93;;
46365;SDS011;32073;49.166;8.076;2023-03-21T07:30:50;2.50;;;1.10;;
46365;SDS011;32073;49.166;8.076;2023-03-21T07:34:54;2.83;;;1.17;;
46365;SDS011;32073;49.166;8.076;2023-03-21T07:38:55;3.35;;;1.25;;
46365;SDS011;32073;49.166;8.076;2023-03-21T07:42:56;2.53;;;1.35;;
46365;SDS011;32073;49.166;8.076;2023-03-21T07:46:56;2.47;;;1.38;;
46365;SDS011;32073;49.166;8.076;2023-03-21T07:50:57;4.47;;;1.88;;
46365;SDS011;32073;49.166;8.076;2023-03-21T07:54:58;4.45;;;1.77;;
46365;SDS011;32073;49.166;8.076;2023-03-21T07:58:58;2.70;;;1.52;;
46365;SDS011;32073;49.166;8.076;2023-03-21T08:02:59;4.00;;;1.40;;
46365;SDS011;32073;49.166;8.076;2023-03-21T08:07:00;2.85;;;1.70;;
46365;SDS011;32073;49.166;8.076;2023-03-21T08:11:02;3.30;;;1.80;;
46365;SDS011;32073;49.166;8.076;2023-03-21T08:15:04;4.13;;;2.03;;
46365;SDS011;32073;49.166;8.076;2023-03-21T08:19:05;3.60;;;1.95;;
46365;SDS011;32073;49.166;8.076;2023-03-21T08:23:06;2.97;;;2.10;;
46365;SDS011;32073;49.166;8.076;2023-03-21T08:27:07;4.05;;;2.50;;
46365;SDS011;32073;49.166;8.076;2023-03-21T08:31:09;5.15;;;2.33;;
46365;SDS011;32073;49.166;8.076;2023-03-21T08:35:12;5.28;;;2.00;;
46365;SDS011;32073;49.166;8.076;2023-03-21T08:39:15;2.78;;;2.05;;
46365;SDS011;32073;49.166;8.076;2023-03-21T08:43:15;2.97;;;2.28;;
46365;SDS011;32073;49.166;8.076;2023-03-21T08:47:16;3.00;;;2.15;;
46365;SDS011;32073;49.166;8.076;2023-03-21T08:51:16;3.47;;;2.10;;
46365;SDS011;32073;49.166;8.076;2023-03-21T08:55:17;4.45;;;2.17;;
46365;SDS011;32073;49.166;8.076;2023-03-21T08:59:18;2.97;;;2.05;;
46365;SDS011;32073;49.166;8.076;2023-03-21T09:03:19;3.13;;;1.90;;
46365;SDS011;32073;49.166;8.076;2023-03-21T09:07:20;2.75;;;2.20;;
46365;SDS011;32073;49.166;8.076;2023-03-21T09:11:21;4.55;;;2.13;;
46365;SDS011;32073;49.166;8.076;2023-03-21T09:15:23;3.38;;;2.38;;
46365;SDS011;32073;49.166;8.076;2023-03-21T09:19:27;4.53;;;2.25;;
46365;SDS011;32073;49.166;8.076;2023-03-21T09:23:29;3.60;;;2.42;;
46365;SDS011;32073;49.166;8.076;2023-03-21T09:27:30;3.13;;;2.13;;
46365;SDS011;32073;49.166;8.076;2023-03-21T09:31:32;3.15;;;2.28;;
46365;SDS011;32073;49.166;8.076;2023-03-21T09:35:33;4.45;;;2.38;;
46365;SDS011;32073;49.166;8.076;2023-03-21T09:39:35;3.30;;;2.03;;
46365;SDS011;32073;49.166;8.076;2023-03-21T09:48:23;5.10;;;2.08;;
46365;SDS011;32073;49.166;8.076;2023-03-21T09:52:41;3.63;;;2.30;;
46365;SDS011;32073;49.166;8.076;2023-03-21T09:56:50;3.70;;;2.35;;
46365;SDS011;32073;49.166;8.076;2023-03-21T10:01:00;5.60;;;2.28;;
46365;SDS011;32073;49.166;8.076;2023-03-21T10:05:20;2.35;;;1.90;;
46365;SDS011;32073;49.166;8.076;2023-03-21T10:09:29;3.05;;;1.70;;
46365;SDS011;32073;49.166;8.076;2023-03-21T10:13:32;2.78;;;1.77;;
46365;SDS011;32073;49.166;8.076;2023-03-21T10:17:39;5.05;;;2.00;;
46365;SDS011;32073;49.166;8.076;2023-03-21T10:21:44;4.50;;;2.00;;
46365;SDS011;32073;49.166;8.076;2023-03-21T10:25:53;2.75;;;1.70;;
46365;SDS011;32073;49.166;8.076;2023-03-21T10:29:58;4.57;;;2.00;;
46365;SDS011;32073;49.166;8.076;2023-03-21T10:34:02;11.27;;;2.22;;
46365;SDS011;32073;49.166;8.076;2023-03-21T10:38:14;3.42;;;2.17;;
46365;SDS011;32073;49.166;8.076;2023-03-21T10:42:19;3.00;;;2.25;;
46365;SDS011;32073;49.166;8.076;2023-03-21T10:46:23;2.97;;;2.45;;
46365;SDS011;32073;49.166;8.076;2023-03-21T10:50:26;4.63;;;2.53;;
46365;SDS011;32073;49.166;8.076;2023-03-21T10:54:30;4.20;;;2.80;;
46365;SDS011;32073;49.166;8.076;2023-03-21T10:58:34;2.78;;;2.25;;
46365;SDS011;32073;49.166;8.076;2023-03-21T11:02:38;4.10;;;2.47;;
46365;SDS011;32073;49.166;8.076;2023-03-21T11:06:40;3.95;;;2.38;;
46365;SDS011;32073;49.166;8.076;2023-03-21T11:10:50;3.45;;;2.42;;
46365;SDS011;32073;49.166;8.076;2023-03-21T11:14:54;3.78;;;2.55;;
46365;SDS011;32073;49.166;8.076;2023-03-21T11:18:59;3.78;;;2.30;;
46365;SDS011;32073;49.166;8.076;2023-03-21T11:23:03;4.15;;;2.20;;
46365;SDS011;32073;49.166;8.076;2023-03-21T11:27:06;3.80;;;2.33;;
46365;SDS011;32073;49.166;8.076;2023-03-21T11:31:07;3.20;;;2.55;;
46365;SDS011;32073;49.166;8.076;2023-03-21T11:35:13;3.33;;;2.50;;
46365;SDS011;32073;49.166;8.076;2023-03-21T11:39:33;3.13;;;2.42;;
46365;SDS011;32073;49.166;8.076;2023-03-21T11:43:39;3.45;;;2.15;;
46365;SDS011;32073;49.166;8.076;2023-03-21T11:47:40;3.55;;;2.05;;
46365;SDS011;32073;49.166;8.076;2023-03-21T11:51:47;3.17;;;2.00;;
46365;SDS011;32073;49.166;8.076;2023-03-21T12:00:26;3.25;;;1.80;;
46365;SDS011;32073;49.166;8.076;2023-03-21T12:09:06;2.45;;;1.80;;
46365;SDS011;32073;49.166;8.076;2023-03-21T12:27:26;6.88;;;4.03;;
46365;SDS011;32073;49.166;8.076;2023-03-21T12:44:44;6.22;;;2.22;;
46365;SDS011;32073;49.166;8.076;2023-03-21T12:49:01;2.35;;;1.65;;
46365;SDS011;32073;49.166;8.076;2023-03-21T12:53:28;2.15;;;1.70;;
46365;SDS011;32073;49.166;8.076;2023-03-21T13:02:21;3.20;;;1.38;;
46365;SDS011;32073;49.166;8.076;2023-03-21T13:06:30;2.40;;;1.27;;
46365;SDS011;32073;49.166;8.076;2023-03-21T13:10:32;7.32;;;3.45;;
46365;SDS011;32073;49.166;8.076;2023-03-21T13:14:35;5.80;;;3.05;;
46365;SDS011;32073;49.166;8.076;2023-03-21T13:18:50;4.00;;;2.60;;
46365;SDS011;32073;49.166;8.076;2023-03-21T13:22:59;3.10;;;2.10;;
46365;SDS011;32073;49.166;8.076;2023-03-21T13:27:06;1.90;;;1.52;;
46365;SDS011;32073;49.166;8.076;2023-03-21T13:31:28;4.32;;;1.73;;
46365;SDS011;32073;49.166;8.076;2023-03-21T13:35:33;2.33;;;1.60;;
46365;SDS011;32073;49.166;8.076;2023-03-21T13:39:37;2.88;;;1.45;;
46365;SDS011;32073;49.166;8.076;2023-03-21T13:43:50;2.95;;;1.52;;
46365;SDS011;32073;49.166;8.076;2023-03-21T13:52:28;2.88;;;1.60;;
46365;SDS011;32073;49.166;8.076;2023-03-21T13:56:29;1.90;;;1.35;;
46365;SDS011;32073;49.166;8.076;2023-03-21T14:01:10;2.25;;;1.80;;
46365;SDS011;32073;49.166;8.076;2023-03-21T14:05:54;4.43;;;1.67;;
46365;SDS011;32073;49.166;8.076;2023-03-21T14:10:05;2.67;;;1.60;;
46365;SDS011;32073;49.166;8.076;2023-03-21T14:14:19;2.05;;;1.80;;
46365;SDS011;32073;49.166;8.076;2023-03-21T14:18:25;3.05;;;2.13;;
46365;SDS011;32073;49.166;8.076;2023-03-21T14:22:28;2.90;;;1.73;;
46365;SDS011;32073;49.166;8.076;2023-03-21T14:26:31;3.50;;;1.77;;
46365;SDS011;32073;49.166;8.076;2023-03-21T14:30:36;10.23;;;4.63;;
46365;SDS011;32073;49.166;8.076;2023-03-21T14:34:39;19.25;;;8.68;;
46365;SDS011;32073;49.166;8.076;2023-03-21T14:38:40;5.50;;;3.10;;
46365;SDS011;32073;49.166;8.076;2023-03-21T14:42:44;9.25;;;4.63;;
46365;SDS011;32073;49.166;8.076;2023-03-21T14:46:47;8.50;;;4.47;;
46365;SDS011;32073;49.166;8.076;2023-03-21T14:50:48;12.43;;;5.60;;
46365;SDS011;32073;49.166;8.076;2023-03-21T14:54:55;13.90;;;5.53;;
46365;SDS011;32073;49.166;8.076;2023-03-21T14:58:57;13.07;;;6.22;;
46365;SDS011;32073;49.166;8.076;2023-03-21T15:02:58;23.90;;;8.13;;
46365;SDS011;32073;49.166;8.076;2023-03-21T15:07:00;20.98;;;9.07;;
46365;SDS011;32073;49.166;8.076;2023-03-21T15:11:04;8.13;;;4.72;;
46365;SDS011;32073;49.166;8.076;2023-03-21T15:15:12;11.63;;;5.93;;
46365;SDS011;32073;49.166;8.076;2023-03-21T15:19:15;5.80;;;3.13;;
46365;SDS011;32073;49.166;8.076;2023-03-21T15:23:52;13.77;;;8.32;;
46365;SDS011;32073;49.166;8.076;2023-03-21T15:27:47;4.72;;;2.92;;
46365;SDS011;32073;49.166;8.076;2023-03-21T15:31:49;2.80;;;2.08;;
46365;SDS011;32073;49.166;8.076;2023-03-21T15:35:54;3.30;;;2.10;;
46365;SDS011;32073;49.166;8.076;2023-03-21T15:40:05;1.70;;;1.48;;
46365;SDS011;32073;49.166;8.076;2023-03-21T15:44:18;1.83;;;1.23;;
46365;SDS011;32073;49.166;8.076;2023-03-21T15:48:27;2.63;;;1.45;;
46365;SDS011;32073;49.166;8.076;2023-03-21T15:52:33;1.90;;;1.15;;
46365;SDS011;32073;49.166;8.076;2023-03-21T15:56:35;3.05;;;1.30;;
46365;SDS011;32073;49.166;8.076;2023-03-21T16:00:41;2.47;;;1.60;;
46365;SDS011;32073;49.166;8.076;2023-03-21T16:05:13;1.27;;;1.10;;
46365;SDS011;32073;49.166;8.076;2023-03-21T16:09:40;2.25;;;1.23;;
46365;SDS011;32073;49.166;8.076;2023-03-21T16:13:43;2.70;;;1.50;;
46365;SDS011;32073;49.166;8.076;2023-03-21T16:17:58;2.80;;;1.23;;
46365;SDS011;32073;49.166;8.076;2023-03-21T16:22:07;3.67;;;1.40;;
46365;SDS011;32073;49.166;8.076;2023-03-21T16:26:12;1.65;;;1.40;;
46365;SDS011;32073;49.166;8.076;2023-03-21T16:30:19;5.57;;;1.40;;
46365;SDS011;32073;49.166;8.076;2023-03-21T16:34:21;2.80;;;1.20;;
46365;SDS011;32073;49.166;8.076;2023-03-21T16:38:22;2.13;;;1.23;;
46365;SDS011;32073;49.166;8.076;2023-03-21T16:42:22;1.90;;;1.30;;
46365;SDS011;32073;49.166;8.076;2023-03-21T16:46:24;2.78;;;1.30;;
46365;SDS011;32073;49.166;8.076;2023-03-21T16:50:35;2.38;;;1.10;;
46365;SDS011;32073;49.166;8.076;2023-03-21T16:54:41;2.72;;;1.45;;
46365;SDS011;32073;49.166;8.076;2023-03-21T16:58:42;2.92;;;1.10;;
46365;SDS011;32073;49.166;8.076;2023-03-21T17:02:43;3.47;;;1.20;;
46365;SDS011;32073;49.166;8.076;2023-03-21T17:06:44;1.85;;;0.98;;
46365;SDS011;32073;49.166;8.076;2023-03-21T17:10:49;2.40;;;1.05;;
46365;SDS011;32073;49.166;8.076;2023-03-21T17:14:49;13.13;;;7.00;;
46365;SDS011;32073;49.166;8.076;2023-03-21T17:18:50;22.90;;;10.00;;
46365;SDS011;32073;49.166;8.076;2023-03-21T17:22:51;12.15;;;5.28;;
46365;SDS011;32073;49.166;8.076;2023-03-21T17:26:52;27.95;;;13.77;;
46365;SDS011;32073;49.166;8.076;2023-03-21T17:30:52;34.75;;;17.35;;
46365;SDS011;32073;49.166;8.076;2023-03-21T17:34:54;10.95;;;5.78;;
46365;SDS011;32073;49.166;8.076;2023-03-21T17:38:55;4.63;;;3.15;;
46365;SDS011;32073;49.166;8.076;2023-03-21T17:42:57;3.38;;;2.20;;
46365;SDS011;32073;49.166;8.076;2023-03-21T17:46:59;4.93;;;2.00;;
46365;SDS011;32073;49.166;8.076;2023-03-21T17:51:00;5.68;;;2.97;;
46365;SDS011;32073;49.166;8.076;2023-03-21T17:55:01;21.52;;;12.75;;
46365;SDS011;32073;49.166;8.076;2023-03-21T17:59:03;8.85;;;4.57;;
46365;SDS011;32073;49.166;8.076;2023-03-21T18:03:06;8.93;;;2.95;;
46365;SDS011;32073;49.166;8.076;2023-03-21T18:07:08;2.97;;;1.80;;
46365;SDS011;32073;49.166;8.076;2023-03-21T18:11:13;4.78;;;1.60;;
46365;SDS011;32073;49.166;8.076;2023-03-21T18:15:16;2.35;;;1.40;;
46365;SDS011;32073;49.166;8.076;2023-03-21T18:19:18;2.85;;;2.33;;
46365;SDS011;32073;49.166;8.076;2023-03-21T18:23:19;13.90;;;5.30;;
46365;SDS011;32073;49.166;8.076;2023-03-21T18:27:20;46.17;;;19.17;;
46365;SDS011;32073;49.166;8.076;2023-03-21T18:31:21;33.38;;;15.70;;
46365;SDS011;32073;49.166;8.076;2023-03-21T18:35:22;27.95;;;13.30;;
46365;SDS011;32073;49.166;8.076;2023-03-21T18:39:23;8.85;;;4.60;;
46365;SDS011;32073;49.166;8.076;2023-03-21T18:43:24;5.35;;;3.85;;
46365;SDS011;32073;49.166;8.076;2023-03-21T18:47:24;3.33;;;2.25;;
46365;SDS011;32073;49.166;8.076;2023-03-21T18:51:25;4.10;;;1.90;;
46365;SDS011;32073;49.166;8.076;2023-03-21T18:55:26;3.28;;;1.63;;
46365;SDS011;32073;49.166;8.076;2023-03-21T18:59:26;3.88;;;1.80;;
46365;SDS011;32073;49.166;8.076;2023-03-21T19:03:27;3.53;;;1.95;;
46365;SDS011;32073;49.166;8.076;2023-03-21T19:07:28;2.95;;;1.88;;
46365;SDS011;32073;49.166;8.076;2023-03-21T19:11:29;2.72;;;1.67;;
46365;SDS011;32073;49.166;8.076;2023-03-21T19:15:30;2.47;;;1.55;;
46365;SDS011;32073;49.166;8.076;2023-03-21T19:19:31;3.20;;;1.60;;
46365;SDS011;32073;49.166;8.076;2023-03-21T19:23:32;4.75;;;1.50;;
46365;SDS011;32073;49.166;8.076;2023-03-21T19:27:34;2.05;;;1.48;;
46365;SDS011;32073;49.166;8.076;2023-03-21T19:31:36;5.82;;;1.92;;
46365;SDS011;32073;49.166;8.076;2023-03-21T19:35:38;3.33;;;1.10;;
46365;SDS011;32073;49.166;8.076;2023-03-21T19:39:42;2.40;;;1.30;;
46365;SDS011;32073;49.166;8.076;2023-03-21T19:43:42;2.72;;;1.20;;
46365;SDS011;32073;49.166;8.076;2023-03-21T19:47:45;2.35;;;1.35;;
46365;SDS011;32073;49.166;8.076;2023-03-21T19:51:45;1.77;;;1.42;;
46365;SDS011;32073;49.166;8.076;2023-03-21T19:55:48;3.90;;;1.80;;
46365;SDS011;32073;49.166;8.076;2023-03-21T19:59:51;1.85;;;1.33;;
46365;SDS011;32073;49.166;8.076;2023-03-21T20:03:53;4.85;;;2.58;;
46365;SDS011;32073;49.166;8.076;2023-03-21T20:07:54;5.10;;;1.83;;
46365;SDS011;32073;49.166;8.076;2023-03-21T20:11:57;3.08;;;1.50;;
46365;SDS011;32073;49.166;8.076;2023-03-21T20:15:59;2.30;;;1.10;;
46365;SDS011;32073;49.166;8.076;2023-03-21T20:20:00;1.58;;;1.10;;
46365;SDS011;32073;49.166;8.076;2023-03-21T20:24:08;2.05;;;1.20;;
46365;SDS011;32073;49.166;8.076;2023-03-21T20:28:10;3.22;;;1.30;;
46365;SDS011;32073;49.166;8.076;2023-03-21T20:32:12;2.65;;;1.20;;
46365;SDS011;32073;49.166;8.076;2023-03-21T20:36:13;2.88;;;1.70;;
46365;SDS011;32073;49.166;8.076;2023-03-21T20:40:17;4.60;;;2.72;;
46365;SDS011;32073;49.166;8.076;2023-03-21T20:44:19;3.72;;;2.55;;
46365;SDS011;32073;49.166;8.076;2023-03-21T20:48:22;3.72;;;2.53;;
46365;SDS011;32073;49.166;8.076;2023-03-21T20:52:24;3.92;;;1.77;;
46365;SDS011;32073;49.166;8.076;2023-03-21T20:56:27;2.55;;;1.70;;
46365;SDS011;32073;49.166;8.076;2023-03-21T21:00:29;1.92;;;1.20;;
46365;SDS011;32073;49.166;8.076;2023-03-21T21:04:30;2.83;;;1.38;;
46365;SDS011;32073;49.166;8.076;2023-03-21T21:08:31;1.40;;;1.10;;
46365;SDS011;32073;49.166;8.076;2023-03-21T21:12:34;2.67;;;1.63;;
46365;SDS011;32073;49.166;8.076;2023-03-21T21:16:39;2.28;;;1.58;;
46365;SDS011;32073;49.166;8.076;2023-03-21T21:20:40;2.58;;;1.42;;
46365;SDS011;32073;49.166;8.076;2023-03-21T21:24:40;4.03;;;2.25;;
46365;SDS011;32073;49.166;8.076;2023-03-21T21:28:42;2.58;;;1.77;;
46365;SDS011;32073;49.166;8.076;2023-03-21T21:32:46;2.45;;;1.27;;
46365;SDS011;32073;49.166;8.076;2023-03-21T21:36:48;2.28;;;1.40;;
46365;SDS011;32073;49.166;8.076;2023-03-21T21:40:49;2.63;;;1.50;;
46365;SDS011;32073;49.166;8.076;2023-03-21T21:44:50;1.60;;;1.10;;
46365;SDS011;32073;49.166;8.076;2023-03-21T21:48:51;2.35;;;1.38;;
46365;SDS011;32073;49.166;8.076;2023-03-21T21:52:52;1.80;;;1.10;;
46365;SDS011;32073;49.166;8.076;2023-03-21T21:56:53;2.13;;;1.33;;
46365;SDS011;32073;49.166;8.076;2023-03-21T22:00:56;1.63;;;1.38;;
46365;SDS011;32073;49.166;8.076;2023-03-21T22:04:58;4.90;;;2.88;;
46365;SDS011;32073;49.166;8.076;2023-03-21T22:08:59;5.05;;;4.28;;
46365;SDS011;32073;49.166;8.076;2023-03-21T22:13:00;5.20;;;3.22;;
46365;SDS011;32073;49.166;8.076;2023-03-21T22:17:01;3.45;;;1.98;;
46365;SDS011;32073;49.166;8.076;2023-03-21T22:21:03;2.05;;;1.50;;
46365;SDS011;32073;49.166;8.076;2023-03-21T22:25:06;1.83;;;1.13;;
46365;SDS011;32073;49.166;8.076;2023-03-21T22:29:09;2.95;;;1.70;;
46365;SDS011;32073;49.166;8.076;2023-03-21T22:33:10;2.13;;;1.48;;
46365;SDS011;32073;49.166;8.076;2023-03-21T22:37:11;2.38;;;1.40;;
46365;SDS011;32073;49.166;8.076;2023-03-21T22:41:11;6.90;;;1.52;;
46365;SDS011;32073;49.166;8.076;2023-03-21T22:45:12;2.08;;;1.40;;
46365;SDS011;32073;49.166;8.076;2023-03-21T22:49:13;2.17;;;1.63;;
46365;SDS011;32073;49.166;8.076;2023-03-21T22:53:14;3.13;;;1.70;;
46365;SDS011;32073;49.166;8.076;2023-03-21T22:57:15;4.63;;;1.70;;
46365;SDS011;32073;49.166;8.076;2023-03-21T23:01:17;1.38;;;1.27;;
46365;SDS011;32073;49.166;8.076;2023-03-21T23:05:17;2.75;;;1.70;;
46365;SDS011;32073;49.166;8.076;2023-03-21T23:09:18;4.70;;;1.77;;
46365;SDS011;32073;49.166;8.076;2023-03-21T23:13:19;2.78;;;1.70;;
46365;SDS011;32073;49.166;8.076;2023-03-21T23:17:22;3.90;;;1.40;;
46365;SDS011;32073;49.166;8.076;2023-03-21T23:21:24;3.83;;;1.30;;
46365;SDS011;32073;49.166;8.076;2023-03-21T23:25:25;3.55;;;1.73;;
46365;SDS011;32073;49.166;8.076;2023-03-21T23:29:27;2.42;;;1.33;;
46365;SDS011;32073;49.166;8.076;2023-03-21T23:33:28;3.42;;;1.73;;
46365;SDS011;32073;49.166;8.076;2023-03-21T23:37:30;2.67;;;1.60;;
46365;SDS011;32073;49.166;8.076;2023-03-21T23:41:31;2.55;;;1.75;;
46365;SDS011;32073;49.166;8.076;2023-03-21T23:45:32;3.30;;;1.80;;
46365;SDS011;32073;49.166;8.076;2023-03-21T23:49:34;2.20;;;1.48;;
46365;SDS011;32073;49.166;8.076;2023-03-21T23:53:39;2.10;;;1.40;;
46365;SDS011;32073;49.166;8.076;2023-03-21T23:57:40;2.72;;;1.95;;
